Time;durP1;ratioP1;P1;durP2;ratioP2;P2;SDS_P1;SDS_P2;PMS_P1;PMS_P2;Temp;Humidity;BMP_temperature;BMP_pressure;BME280_temperature;BME280_humidity;BME280_pressure;Samples;Min_cycle;Max_cycle;Signal;HPM_P1;HPM_P2
2023/02/12 00:01:44;;;;;;;24.93;10.40;;;;;;;7.57;100.00;103508.66;5012725;28;20695;-68
2023/02/12 00:04:09;;;;;;;21.43;10.43;;;;;;;7.57;100.00;103508.66;5010716;28;20202;-68
2023/02/12 00:06:37;;;;;;;22.50;11.47;;;;;;;7.57;100.00;103518.88;5007623;28;20977;-68
2023/02/12 00:09:02;;;;;;;19.97;11.03;;;;;;;7.55;100.00;103520.41;5010010;28;20206;-68
2023/02/12 00:11:28;;;;;;;22.83;11.63;;;;;;;7.55;100.00;103524.63;4991534;28;20199;-68
2023/02/12 00:13:56;;;;;;;20.33;10.17;;;;;;;7.53;100.00;103527.06;5005537;28;20210;-68
2023/02/12 00:16:24;;;;;;;19.63;10.03;;;;;;;7.52;100.00;103522.75;5009312;28;20273;-67
2023/02/12 00:18:54;;;;;;;16.57;9.20;;;;;;;7.52;100.00;103530.38;5009104;28;20230;-67
2023/02/12 00:21:21;;;;;;;17.73;8.43;;;;;;;7.51;100.00;103536.22;4996706;28;20252;-67
2023/02/12 00:23:46;;;;;;;14.97;8.40;;;;;;;7.51;100.00;103536.22;5010169;28;20756;-67
2023/02/12 00:26:15;;;;;;;17.23;9.23;;;;;;;7.50;100.00;103542.09;5016314;28;20246;-67
2023/02/12 00:28:45;;;;;;;13.80;7.70;;;;;;;7.49;100.00;103537.78;5014278;28;20685;-67
2023/02/12 00:31:15;;;;;;;15.90;8.13;;;;;;;7.47;100.00;103534.22;5004542;28;20929;-67
2023/02/12 00:33:40;;;;;;;11.23;7.10;;;;;;;7.45;100.00;103532.34;5009024;28;20193;-67
2023/02/12 00:36:07;;;;;;;10.27;6.67;;;;;;;7.45;100.00;103539.97;5014636;28;20563;-67
2023/02/12 00:38:33;;;;;;;10.40;6.30;;;;;;;7.44;100.00;103539.13;5013905;28;20199;-67
2023/02/12 00:40:59;;;;;;;8.80;5.77;;;;;;;7.44;100.00;103539.13;4994404;28;20718;-67
2023/02/12 00:43:24;;;;;;;9.37;5.67;;;;;;;7.43;100.00;103536.44;5014093;28;20191;-67
2023/02/12 00:45:50;;;;;;;9.60;5.47;;;;;;;7.42;100.00;103538.09;5013816;28;20687;-67
2023/02/12 00:48:15;;;;;;;12.80;5.83;;;;;;;7.40;100.00;103538.75;5010926;28;20201;-67
2023/02/12 00:50:45;;;;;;;11.43;6.40;;;;;;;7.41;100.00;103535.44;5009206;28;20297;-67
2023/02/12 00:53:11;;;;;;;11.63;7.43;;;;;;;7.40;100.00;103539.66;5009984;28;20286;-67
2023/02/12 00:55:37;;;;;;;15.97;7.70;;;;;;;7.38;100.00;103543.72;5010431;28;20195;-67
2023/02/12 00:58:02;;;;;;;15.90;8.30;;;;;;;7.35;100.00;103535.88;5009686;28;20202;-67
2023/02/12 01:00:28;;;;;;;20.93;9.30;;;;;;;7.36;100.00;103529.09;5007101;28;20306;-68
2023/02/12 01:02:55;;;;;;;13.80;8.47;;;;;;;7.36;100.00;103539.28;5005507;28;20303;-67
2023/02/12 01:05:21;;;;;;;17.00;10.23;;;;;;;7.35;100.00;103542.63;5009144;28;20322;-67
2023/02/12 01:07:51;;;;;;;15.27;9.20;;;;;;;7.36;100.00;103554.56;5008085;28;20242;-68
2023/02/12 01:10:17;;;;;;;16.73;9.67;;;;;;;7.33;100.00;103545.03;5008011;28;20191;-67
2023/02/12 01:12:43;;;;;;;15.93;9.43;;;;;;;7.33;100.00;103552.69;5012448;28;20221;-67
2023/02/12 01:15:09;;;;;;;16.27;10.20;;;;;;;7.32;100.00;103552.59;4996841;28;20667;-68
2023/02/12 01:17:35;;;;;;;15.07;9.87;;;;;;;7.31;100.00;103550.78;5017345;28;20684;-68
2023/02/12 01:20:01;;;;;;;13.40;8.13;;;;;;;7.28;100.00;103548.03;5015878;28;20205;-67
2023/02/12 01:22:27;;;;;;;13.67;8.73;;;;;;;7.29;100.00;103547.25;4996820;28;20191;-68
2023/02/12 01:24:52;;;;;;;14.03;8.33;;;;;;;7.28;100.00;103554.00;5011552;28;20217;-68
2023/02/12 01:27:18;;;;;;;16.80;10.03;;;;;;;7.31;100.00;103561.00;5012133;28;20230;-67
2023/02/12 01:29:44;;;;;;;17.93;10.73;;;;;;;7.30;100.00;103560.13;5015935;28;20197;-67
2023/02/12 01:32:10;;;;;;;15.30;10.20;;;;;;;7.30;100.00;103567.75;5006502;28;20678;-67
2023/02/12 01:34:36;;;;;;;15.30;10.37;;;;;;;7.29;100.00;103558.34;5009167;28;20723;-67
2023/02/12 01:37:02;;;;;;;12.93;8.37;;;;;;;7.29;100.00;103566.00;5010178;28;20211;-68
2023/02/12 01:39:28;;;;;;;8.93;5.77;;;;;;;7.26;100.00;103562.31;5013275;28;20938;-67
2023/02/12 01:41:54;;;;;;;6.60;4.80;;;;;;;7.22;100.00;103565.38;4993083;28;20191;-67
2023/02/12 01:44:22;;;;;;;6.70;4.00;;;;;;;7.22;100.00;103565.38;5010276;28;20610;-67
2023/02/12 01:46:55;;;;;;;6.07;4.50;;;;;;;7.22;100.00;103562.84;4993154;28;20563;-67
2023/02/12 01:49:30;;;;;;;8.67;5.47;;;;;;;7.22;100.00;103563.75;5007334;28;20840;-67
2023/02/12 01:52:07;;;;;;;9.73;5.87;;;;;;;7.20;100.00;103560.19;4991264;28;20201;-67
2023/02/12 01:54:34;;;;;;;7.53;5.53;;;;;;;7.22;100.00;103561.19;5008316;28;20205;-67
2023/02/12 01:57:03;;;;;;;9.53;6.30;;;;;;;7.22;100.00;103560.28;5002084;28;20226;-67
2023/02/12 01:59:29;;;;;;;11.77;7.27;;;;;;;7.23;100.00;103559.53;4985891;28;20294;-67
2023/02/12 02:01:55;;;;;;;13.80;8.77;;;;;;;7.21;100.00;103559.41;5014813;28;20221;-67
2023/02/12 02:04:26;;;;;;;11.90;8.17;;;;;;;7.21;100.00;103568.72;5015594;28;20792;-67
2023/02/12 02:06:57;;;;;;;12.97;8.73;;;;;;;7.18;100.00;103550.66;5012051;28;20494;-67
2023/02/12 02:09:23;;;;;;;12.67;8.70;;;;;;;7.16;100.00;103557.28;5012675;28;20198;-67
2023/02/12 02:14:33;;;;;;;11.87;7.37;;;;;;;7.13;100.00;103557.03;4997433;28;20659;-67
2023/02/12 02:17:11;;;;;;;12.67;7.87;;;;;;;7.11;100.00;103559.50;4981915;28;20219;-67
2023/02/12 02:20:00;;;;;;;12.50;7.87;;;;;;;7.10;100.00;103572.09;5012371;28;20195;-67
2023/02/12 02:22:47;;;;;;;14.97;7.47;;;;;;;7.09;100.00;103577.97;5012243;28;20201;-67
2023/02/12 02:25:51;;;;;;;12.07;7.20;;;;;;;7.07;100.00;103574.41;5008120;28;20220;-66
2023/02/12 02:28:35;;;;;;;14.20;7.23;;;;;;;7.08;100.00;103584.72;4930441;29;20206;-67
2023/02/12 02:31:23;;;;;;;13.53;7.87;;;;;;;7.08;100.00;103581.28;5000789;28;20869;-67
2023/02/12 02:34:13;;;;;;;16.40;9.10;;;;;;;7.04;100.00;103575.06;5006216;28;20205;-67
2023/02/12 02:36:59;;;;;;;18.03;9.17;;;;;;;7.04;100.00;103576.75;4981439;28;20275;-67
2023/02/12 02:39:35;;;;;;;16.83;8.73;;;;;;;7.03;100.00;103580.03;5008143;28;20221;-67
2023/02/12 02:42:15;;;;;;;18.93;9.40;;;;;;;7.02;100.00;103576.63;5007143;28;20190;-67
2023/02/12 02:44:49;;;;;;;19.70;9.93;;;;;;;7.02;100.00;103579.16;5011239;28;20194;-67
2023/02/12 02:47:18;;;;;;;16.67;9.07;;;;;;;7.00;100.00;103579.81;5008741;28;20461;-67
2023/02/12 02:49:58;;;;;;;16.87;9.47;;;;;;;6.99;100.00;103578.00;5007446;28;20273;-66
2023/02/12 02:52:30;;;;;;;18.00;10.77;;;;;;;6.98;100.00;103582.25;5008877;28;20217;-67
2023/02/12 02:55:02;;;;;;;19.70;10.40;;;;;;;6.95;100.00;103586.22;5020917;28;20201;-67
2023/02/12 02:57:38;;;;;;;19.63;10.37;;;;;;;6.97;100.00;103588.13;5018414;28;20214;-67
2023/02/12 03:00:19;;;;;;;21.97;11.20;;;;;;;6.97;100.00;103590.66;5017741;28;20205;-67
2023/02/12 03:02:57;;;;;;;21.10;10.50;;;;;;;6.99;100.00;103595.84;4999550;28;20273;-67
2023/02/12 03:05:34;;;;;;;20.57;10.10;;;;;;;6.98;100.00;103594.97;5020161;28;20265;-67
2023/02/12 03:08:14;;;;;;;20.80;10.23;;;;;;;6.97;100.00;103589.75;5016584;28;20257;-68
2023/02/12 03:10:44;;;;;;;23.87;11.10;;;;;;;6.97;100.00;103592.31;5015541;28;20194;-68
2023/02/12 03:13:21;;;;;;;21.13;10.90;;;;;;;6.97;100.00;103594.84;5011248;28;20202;-67
2023/02/12 03:15:52;;;;;;;24.00;11.10;;;;;;;6.97;100.00;103600.84;5009747;28;20201;-66
2023/02/12 03:18:34;;;;;;;23.03;11.33;;;;;;;6.97;100.00;103605.03;4987933;28;20247;-67
2023/02/12 03:21:04;;;;;;;22.07;10.43;;;;;;;6.96;100.00;103606.69;5012469;28;20191;-67
2023/02/12 03:24:19;;;;;;;21.73;10.50;;;;;;;6.95;100.00;103604.03;5013059;28;20260;-67
2023/02/12 03:26:58;;;;;;;24.80;11.83;;;;;;;6.93;100.00;103606.47;4974033;28;20233;-67
2023/02/12 03:29:25;;;;;;;23.53;12.07;;;;;;;6.95;100.00;103604.91;5011943;28;20273;-67
2023/02/12 03:32:27;;;;;;;24.40;11.17;;;;;;;6.95;100.00;103606.59;5005410;28;20194;-67
2023/02/12 03:35:20;;;;;;;20.60;10.80;;;;;;;6.93;100.00;103614.09;5002232;28;20187;-67
2023/02/12 03:37:49;;;;;;;22.27;11.07;;;;;;;6.93;100.00;103603.91;4988184;28;20215;-67
2023/02/12 03:40:27;;;;;;;23.00;11.00;;;;;;;6.89;100.00;103614.63;5009498;28;20195;-67
2023/02/12 03:43:01;;;;;;;21.37;10.90;;;;;;;6.91;100.00;103623.25;5011174;28;20197;-67
2023/02/12 03:45:37;;;;;;;21.77;11.27;;;;;;;6.90;100.00;103618.03;5012740;28;20247;-67
2023/02/12 03:48:12;;;;;;;22.70;11.50;;;;;;;6.89;100.00;103616.28;5011935;28;20337;-67
2023/02/12 03:50:56;;;;;;;19.77;11.27;;;;;;;6.88;100.00;103628.13;5015580;28;20216;-67
2023/02/12 03:53:21;;;;;;;20.10;10.83;;;;;;;6.87;100.00;103628.00;5011129;28;20187;-67
2023/02/12 03:55:52;;;;;;;18.30;10.57;;;;;;;6.86;100.00;103626.25;5000004;28;20589;-67
2023/02/12 03:58:22;;;;;;;20.40;11.33;;;;;;;6.86;100.00;103631.34;5012371;28;20214;-68
2023/02/12 04:00:48;;;;;;;22.17;11.27;;;;;;;6.86;100.00;103634.75;5011885;28;20194;-67
2023/02/12 04:03:14;;;;;;;19.90;11.10;;;;;;;6.83;100.00;103634.53;5012705;28;20191;-68
2023/02/12 04:05:39;;;;;;;19.40;10.90;;;;;;;6.83;100.00;103646.34;5015309;28;20221;-68
2023/02/12 04:08:10;;;;;;;21.27;11.90;;;;;;;6.84;100.00;103645.59;5013957;28;20198;-67
2023/02/12 04:11:05;;;;;;;19.67;11.70;;;;;;;6.84;100.00;103640.50;5012177;28;20626;-68
2023/02/12 04:14:02;;;;;;;21.97;11.77;;;;;;;6.84;100.00;103640.50;4977166;28;20568;-67
2023/02/12 04:16:34;;;;;;;21.00;10.77;;;;;;;6.86;100.00;103644.06;5012011;28;20223;-68
2023/02/12 04:19:00;;;;;;;21.57;11.10;;;;;;;6.87;100.00;103635.66;5002761;28;20203;-68
2023/02/12 04:21:38;;;;;;;19.13;10.90;;;;;;;6.86;100.00;103642.38;5011207;28;20217;-67
2023/02/12 04:24:09;;;;;;;20.33;10.87;;;;;;;6.85;100.00;103645.72;5006757;28;20234;-67
2023/02/12 04:27:01;;;;;;;16.33;9.47;;;;;;;6.87;100.00;103646.72;5012862;28;20386;-68
2023/02/12 04:29:47;;;;;;;19.10;10.83;;;;;;;6.84;100.00;103643.94;5009117;28;20195;-67
2023/02/12 04:32:28;;;;;;;20.90;10.50;;;;;;;6.84;100.00;103650.69;5005771;28;20211;-67
2023/02/12 04:35:05;;;;;;;18.00;9.67;;;;;;;6.83;100.00;103647.25;5006994;28;20270;-68
2023/02/12 04:37:43;;;;;;;19.07;10.60;;;;;;;6.83;100.00;103654.00;5012097;28;20724;-67
2023/02/12 04:40:13;;;;;;;22.30;10.90;;;;;;;6.81;100.00;103651.31;5011703;28;20191;-67
2023/02/12 04:42:49;;;;;;;20.57;10.10;;;;;;;6.81;100.00;103658.97;5017870;28;20220;-67
2023/02/12 04:45:23;;;;;;;19.97;9.93;;;;;;;6.85;100.00;103662.63;4996755;28;20214;-67
2023/02/12 04:47:48;;;;;;;17.80;9.50;;;;;;;6.83;100.00;103661.63;4993067;28;20244;-67
2023/02/12 04:50:14;;;;;;;20.17;9.30;;;;;;;6.83;100.00;103665.09;5010603;28;20640;-67
2023/02/12 04:52:39;;;;;;;18.90;9.97;;;;;;;6.84;100.00;103663.41;5014169;28;20253;-67
2023/02/12 04:55:05;;;;;;;20.40;10.20;;;;;;;6.84;100.00;103671.94;5012674;28;20203;-67
2023/02/12 04:57:30;;;;;;;19.27;9.37;;;;;;;6.82;100.00;103668.38;5005662;28;20210;-67
2023/02/12 04:59:56;;;;;;;20.87;10.37;;;;;;;6.84;100.00;103671.06;5011912;28;20306;-68
2023/02/12 05:02:21;;;;;;;19.37;9.93;;;;;;;6.83;100.00;103661.63;5013471;28;20241;-67
2023/02/12 05:04:50;;;;;;;19.13;10.10;;;;;;;6.82;100.00;103665.81;5011673;28;20187;-68
2023/02/12 05:07:15;;;;;;;21.57;10.93;;;;;;;6.82;100.00;103660.72;5011377;28;20218;-67
2023/02/12 05:09:41;;;;;;;28.20;13.17;;;;;;;6.83;100.00;103671.81;5009905;28;20205;-68
2023/02/12 05:12:07;;;;;;;26.00;13.33;;;;;;;6.84;100.00;103682.13;5009093;28;20210;-67
2023/02/12 05:14:33;;;;;;;27.43;13.13;;;;;;;6.85;100.00;103683.91;4992725;28;20203;-67
2023/02/12 05:16:58;;;;;;;28.63;12.87;;;;;;;6.87;100.00;103673.84;5008979;28;20222;-67
2023/02/12 05:19:24;;;;;;;31.40;13.93;;;;;;;6.87;100.00;103678.94;5009991;28;20191;-67
2023/02/12 05:21:50;;;;;;;34.37;14.03;;;;;;;6.86;100.00;103680.59;5005514;28;20199;-67
2023/02/12 05:24:15;;;;;;;30.97;13.33;;;;;;;6.88;100.00;103673.06;5006608;28;20219;-67
2023/02/12 05:26:41;;;;;;;33.27;15.07;;;;;;;6.88;100.00;103673.97;4995424;28;20590;-67
2023/02/12 05:29:06;;;;;;;35.87;15.67;;;;;;;6.88;100.00;103668.88;5006400;28;20578;-67
2023/02/12 05:31:32;;;;;;;32.57;14.10;;;;;;;6.87;100.00;103666.22;5008584;28;20261;-67
2023/02/12 05:33:58;;;;;;;36.83;15.40;;;;;;;6.88;100.00;103665.44;5013918;28;20277;-67
2023/02/12 05:36:24;;;;;;;39.90;15.03;;;;;;;6.88;100.00;103665.44;5012374;28;20215;-67
2023/02/12 05:38:51;;;;;;;40.33;15.97;;;;;;;6.89;100.00;103664.66;5015861;28;20198;-67
2023/02/12 05:41:20;;;;;;;46.97;15.10;;;;;;;6.88;100.00;103666.34;5011183;28;20195;-67
2023/02/12 05:43:46;;;;;;;44.93;16.67;;;;;;;6.88;100.00;103658.69;5009036;28;20198;-68
2023/02/12 05:46:12;;;;;;;41.57;16.10;;;;;;;6.86;100.00;103664.44;5013727;28;20635;-68
2023/02/12 05:48:38;;;;;;;47.10;16.87;;;;;;;6.84;100.00;103666.84;5010427;28;20198;-68
2023/02/12 05:51:06;;;;;;;47.13;17.03;;;;;;;6.85;100.00;103677.91;5016221;28;20244;-68
2023/02/12 05:53:32;;;;;;;48.63;16.23;;;;;;;6.85;100.00;103673.72;5012145;28;20203;-67
2023/02/12 05:56:16;;;;;;;47.50;16.03;;;;;;;6.87;100.00;103678.94;5008861;28;20217;-67
2023/02/12 05:58:44;;;;;;;41.87;15.13;;;;;;;6.87;100.00;103672.16;5011531;28;20688;-67
2023/02/12 06:01:13;;;;;;;51.00;16.23;;;;;;;6.88;100.00;103680.72;5009148;28;20191;-68
2023/02/12 06:03:38;;;;;;;46.80;16.10;;;;;;;6.90;100.00;103686.81;5010996;28;20202;-67
2023/02/12 06:06:04;;;;;;;41.70;14.23;;;;;;;6.89;100.00;103675.75;5005383;28;20575;-67
2023/02/12 06:08:30;;;;;;;50.37;15.20;;;;;;;6.89;100.00;103680.84;5008965;28;20249;-67
2023/02/12 06:11:00;;;;;;;43.30;15.60;;;;;;;6.89;100.00;103683.38;5011588;28;20567;-67
2023/02/12 06:13:25;;;;;;;44.80;15.13;;;;;;;6.88;100.00;103678.16;5012040;28;20571;-66
2023/02/12 06:15:51;;;;;;;50.90;14.63;;;;;;;6.87;100.00;103687.44;5008719;28;20333;-66
2023/02/12 06:18:16;;;;;;;42.93;14.13;;;;;;;6.87;100.00;103694.22;5018554;28;20201;-66
2023/02/12 06:20:41;;;;;;;46.00;14.40;;;;;;;6.88;100.00;103699.44;5021659;28;20584;-66
2023/02/12 06:23:07;;;;;;;38.00;13.47;;;;;;;6.88;100.00;103699.44;4995896;28;20202;-67
2023/02/12 06:25:32;;;;;;;46.27;12.97;;;;;;;6.90;100.00;103700.44;5016670;28;20585;-67
2023/02/12 06:27:58;;;;;;;38.23;12.63;;;;;;;6.89;100.00;103701.22;5018693;28;20694;-67
2023/02/12 06:30:23;;;;;;;45.43;12.67;;;;;;;6.90;100.00;103707.19;5000882;28;20239;-67
2023/02/12 06:32:49;;;;;;;34.87;10.70;;;;;;;6.91;100.00;103707.31;5016506;28;20210;-67
2023/02/12 06:35:15;;;;;;;29.43;10.27;;;;;;;6.93;100.00;103709.97;5012560;28;20198;-67
2023/02/12 06:37:40;;;;;;;35.57;9.63;;;;;;;6.91;100.00;103704.75;5017927;28;20702;-67
2023/02/12 06:40:06;;;;;;;34.90;9.83;;;;;;;6.92;100.00;103705.66;5014538;28;20256;-67
2023/02/12 06:42:31;;;;;;;29.93;10.73;;;;;;;6.92;100.00;103716.75;5011381;28;20616;-68
2023/02/12 06:44:57;;;;;;;32.57;10.27;;;;;;;6.92;100.00;103715.84;5014784;28;20277;-68
2023/02/12 06:47:22;;;;;;;27.37;9.73;;;;;;;6.94;100.00;103719.41;5011629;28;20207;-68
2023/02/12 06:49:47;;;;;;;28.97;10.20;;;;;;;6.92;100.00;103719.31;5014886;28;20187;-67
2023/02/12 06:52:13;;;;;;;24.40;8.57;;;;;;;6.93;100.00;103717.63;5011237;28;20652;-67
2023/02/12 06:54:39;;;;;;;31.87;9.10;;;;;;;6.93;100.00;103717.63;5013857;28;20203;-67
2023/02/12 06:57:04;;;;;;;28.20;9.30;;;;;;;6.92;100.00;103721.84;5006858;28;20211;-67
2023/02/12 06:59:30;;;;;;;29.87;9.00;;;;;;;6.94;100.00;103721.94;5012260;28;20195;-67
2023/02/12 07:01:56;;;;;;;32.40;9.43;;;;;;;6.93;100.00;103732.91;5013229;28;20190;-67
2023/02/12 07:04:21;;;;;;;43.60;9.87;;;;;;;6.93;100.00;103732.91;5007255;28;20214;-68
2023/02/12 07:06:46;;;;;;;36.37;9.63;;;;;;;6.93;100.00;103730.34;5008556;28;20222;-67
2023/02/12 07:09:12;;;;;;;33.30;9.30;;;;;;;6.92;100.00;103731.13;5009101;28;20721;-68
2023/02/12 07:11:37;;;;;;;35.90;8.10;;;;;;;6.91;100.00;103737.88;5017966;28;20198;-67
2023/02/12 07:14:03;;;;;;;32.00;8.43;;;;;;;6.91;100.00;103737.88;5020544;28;20780;-68
2023/02/12 07:16:28;;;;;;;40.93;10.03;;;;;;;6.90;100.00;103737.75;5013596;28;20310;-68
2023/02/12 07:18:54;;;;;;;42.70;9.13;;;;;;;6.93;100.00;103741.44;5019627;28;20198;-68
2023/02/12 07:21:20;;;;;;;43.03;10.20;;;;;;;6.92;100.00;103741.31;5016340;28;20204;-68
2023/02/12 07:23:48;;;;;;;36.00;9.23;;;;;;;6.94;100.00;103742.31;5017212;28;20256;-68
2023/02/12 07:26:14;;;;;;;47.23;11.47;;;;;;;6.94;100.00;103747.41;5016522;28;20219;-68
2023/02/12 07:28:41;;;;;;;45.07;10.03;;;;;;;6.97;100.00;103752.75;5017566;28;20277;-68
2023/02/12 07:31:11;;;;;;;47.73;11.63;;;;;;;6.99;100.00;103752.13;5013942;28;20197;-68
2023/02/12 07:33:37;;;;;;;45.73;10.60;;;;;;;7.02;100.00;103754.03;5015036;28;20199;-68
2023/02/12 07:36:05;;;;;;;46.50;12.37;;;;;;;7.04;100.00;103752.50;5012621;28;20199;-68
2023/02/12 07:38:32;;;;;;;34.43;10.90;;;;;;;7.07;100.00;103753.63;5014183;28;20205;-68
2023/02/12 07:41:09;;;;;;;40.97;11.43;;;;;;;7.10;100.00;103751.31;5009293;28;20237;-68
2023/02/12 07:43:35;;;;;;;39.60;11.13;;;;;;;7.14;100.00;103749.91;4995282;28;20198;-67
2023/02/12 07:46:12;;;;;;;33.90;11.00;;;;;;;7.13;100.00;103748.09;5009162;28;20218;-67
2023/02/12 07:48:38;;;;;;;37.77;11.47;;;;;;;7.15;100.00;103752.59;5006388;28;20202;-67
2023/02/12 07:51:08;;;;;;;40.03;9.93;;;;;;;7.15;100.00;103749.16;5004736;28;20249;-67
2023/02/12 07:53:34;;;;;;;39.20;10.10;;;;;;;7.15;100.00;103747.50;4992952;28;20229;-67
2023/02/12 07:56:08;;;;;;;49.10;12.33;;;;;;;7.16;100.00;103740.72;5004828;28;20241;-67
2023/02/12 07:58:34;;;;;;;42.83;11.50;;;;;;;7.15;100.00;103746.59;5004239;28;20188;-68
2023/02/12 08:00:59;;;;;;;44.10;12.40;;;;;;;7.16;100.00;103750.91;5014714;28;20220;-67
2023/02/12 08:03:27;;;;;;;49.40;12.10;;;;;;;7.21;100.00;103754.72;5017105;28;20338;-67
2023/02/12 08:05:52;;;;;;;44.67;12.60;;;;;;;7.25;100.00;103754.19;5016629;28;20241;-68
2023/02/12 08:08:18;;;;;;;48.30;12.43;;;;;;;7.26;100.00;103751.78;5014177;28;20202;-67
2023/02/12 08:10:43;;;;;;;42.37;12.43;;;;;;;7.30;100.00;103755.44;5018649;28;20192;-68
2023/02/12 08:13:08;;;;;;;51.90;13.47;;;;;;;7.33;100.00;103764.22;5012823;28;20684;-67
2023/02/12 08:15:34;;;;;;;48.70;13.80;;;;;;;7.38;100.00;103759.50;5014985;28;20195;-67
2023/02/12 08:18:00;;;;;;;43.93;12.90;;;;;;;7.44;100.00;103759.97;5010900;28;20290;-67
2023/02/12 08:20:26;;;;;;;46.63;13.00;;;;;;;7.49;100.00;103759.56;5013563;28;20195;-67
2023/02/12 08:22:51;;;;;;;39.30;11.63;;;;;;;7.55;100.00;103762.59;5012105;28;20224;-67
2023/02/12 08:25:16;;;;;;;40.10;12.63;;;;;;;7.58;100.00;103767.03;5009475;28;20222;-67
2023/02/12 08:27:42;;;;;;;32.67;11.80;;;;;;;7.59;100.00;103771.34;5011118;28;20226;-67
2023/02/12 08:30:08;;;;;;;40.53;11.87;;;;;;;7.63;100.00;103773.38;5007642;28;20282;-67
2023/02/12 08:32:33;;;;;;;39.30;12.77;;;;;;;7.64;100.00;103765.84;5007389;28;20233;-67
2023/02/12 08:34:59;;;;;;;38.67;13.40;;;;;;;7.67;100.00;103777.97;5006667;28;20198;-68
2023/02/12 08:37:25;;;;;;;32.50;12.53;;;;;;;7.64;100.00;103777.75;5008240;28;20309;-67
2023/02/12 08:39:50;;;;;;;36.03;13.20;;;;;;;7.67;100.00;103785.59;5007446;28;20648;-67
2023/02/12 08:42:16;;;;;;;33.93;13.70;;;;;;;7.72;100.00;103776.66;5003805;28;20234;-68
2023/02/12 08:44:41;;;;;;;34.10;13.97;;;;;;;7.73;100.00;103784.44;5005201;28;20222;-67
2023/02/12 08:47:08;;;;;;;37.77;13.50;;;;;;;7.77;100.00;103777.91;5002374;28;20285;-67
2023/02/12 08:49:34;;;;;;;36.37;14.07;;;;;;;7.79;100.00;103782.34;5003646;28;20227;-67
2023/02/12 08:52:01;;;;;;;36.00;14.33;;;;;;;7.85;100.00;103787.03;5006448;28;20725;-66
2023/02/12 08:54:29;;;;;;;36.47;14.07;;;;;;;7.88;100.00;103787.28;5016967;28;20792;-66
2023/02/12 08:56:57;;;;;;;31.77;13.17;;;;;;;7.91;100.00;103787.50;5015266;28;20206;-67
2023/02/12 08:59:23;;;;;;;31.00;13.40;;;;;;;7.94;100.00;103778.44;5011972;28;20236;-67
2023/02/12 09:01:51;;;;;;;33.47;14.23;;;;;;;7.98;100.00;103785.56;5017837;28;20187;-67
2023/02/12 09:04:22;;;;;;;28.67;13.40;;;;;;;7.98;100.00;103789.78;5014230;28;20289;-67
2023/02/12 09:06:49;;;;;;;33.30;15.53;;;;;;;8.02;100.00;103790.09;4997881;28;20218;-67
2023/02/12 09:09:15;;;;;;;33.50;15.23;;;;;;;8.02;100.00;103786.69;5014137;28;20199;-67
2023/02/12 09:11:41;;;;;;;30.40;13.83;;;;;;;8.07;100.00;103798.13;4997985;28;20694;-67
2023/02/12 09:14:11;;;;;;;32.10;14.80;;;;;;;8.07;100.00;103791.34;5015570;28;20195;-67
2023/02/12 09:16:39;;;;;;;28.53;14.17;;;;;;;8.10;100.00;103791.59;5009532;28;20203;-67
2023/02/12 09:19:04;;;;;;;33.70;15.13;;;;;;;8.14;100.00;103793.59;5005984;28;20564;-68
2023/02/12 09:21:30;;;;;;;28.63;13.53;;;;;;;8.22;100.00;103796.78;5013563;28;20210;-68
2023/02/12 09:23:56;;;;;;;28.57;14.97;;;;;;;8.27;100.00;103793.81;5007679;28;20199;-67
2023/02/12 09:26:25;;;;;;;27.63;14.17;;;;;;;8.30;100.00;103801.69;5007010;28;20247;-67
2023/02/12 09:28:51;;;;;;;27.37;14.30;;;;;;;8.34;100.00;103802.81;5006065;28;20230;-68
2023/02/12 09:31:21;;;;;;;31.33;15.50;;;;;;;8.33;100.00;103807.03;5003011;28;20223;-68
2023/02/12 09:33:48;;;;;;;26.30;13.60;;;;;;;8.41;100.00;103798.28;5006036;28;20206;-68
2023/02/12 09:36:15;;;;;;;28.80;13.97;;;;;;;8.49;100.00;103804.88;5004805;28;20211;-68
2023/02/12 09:38:41;;;;;;;27.20;14.07;;;;;;;8.46;100.00;103804.63;5005762;28;20199;-67
2023/02/12 09:41:16;;;;;;;23.27;13.80;;;;;;;8.48;100.00;103804.75;5001229;28;20268;-68
2023/02/12 09:44:03;;;;;;;27.03;14.00;;;;;;;8.49;100.00;103812.53;5001505;28;20212;-68
2023/02/12 09:46:35;;;;;;;25.53;14.63;;;;;;;8.52;100.00;103816.97;5020772;28;20226;-66
2023/02/12 09:49:37;;;;;;;23.80;14.57;;;;;;;8.53;100.00;103818.75;5017344;28;20344;-68
2023/02/12 09:52:05;;;;;;;27.07;14.10;;;;;;;8.56;100.00;103816.41;5010720;28;20182;-68
2023/02/12 09:54:38;;;;;;;26.07;14.40;;;;;;;8.58;100.00;103819.97;5016156;28;20194;-68
2023/02/12 09:57:13;;;;;;;25.07;14.80;;;;;;;8.59;100.00;103816.66;5013080;28;20672;-67
2023/02/12 09:59:46;;;;;;;24.63;13.60;;;;;;;8.58;100.00;103825.09;5015937;28;20193;-67
2023/02/12 10:02:15;;;;;;;24.43;14.10;;;;;;;8.59;100.00;103825.22;5006705;28;20206;-67
2023/02/12 10:04:42;;;;;;;20.10;12.57;;;;;;;8.61;100.00;103828.75;5012322;28;20625;-68
2023/02/12 10:07:38;;;;;;;24.40;13.97;;;;;;;8.61;100.00;103827.88;5007910;28;20227;-67
2023/02/12 10:10:19;;;;;;;23.47;14.13;;;;;;;8.67;100.00;103833.44;5007776;28;20191;-68
2023/02/12 10:13:03;;;;;;;20.40;12.47;;;;;;;8.72;100.00;103829.56;5009489;28;20248;-68
2023/02/12 10:15:42;;;;;;;21.93;13.67;;;;;;;8.68;100.00;103831.00;5007089;28;20560;-68
2023/02/12 10:18:49;;;;;;;20.83;13.47;;;;;;;8.64;100.00;103829.00;5005560;28;20253;-67
2023/02/12 10:21:20;;;;;;;20.27;12.70;;;;;;;8.69;100.00;103831.88;4936780;29;21074;-68
2023/02/12 10:24:15;;;;;;;21.93;13.03;;;;;;;8.75;100.00;103830.69;4938214;29;20243;-67
2023/02/12 10:26:50;;;;;;;20.57;11.90;;;;;;;8.76;100.00;103827.34;4986599;28;20230;-67
2023/02/12 10:29:30;;;;;;;18.30;11.13;;;;;;;8.89;100.00;103824.91;5000858;28;20203;-67
2023/02/12 10:32:01;;;;;;;16.53;10.13;;;;;;;8.83;100.00;103833.78;5001107;28;20652;-68
2023/02/12 10:34:33;;;;;;;19.10;11.23;;;;;;;8.84;100.00;103830.50;5015454;28;20210;-67
2023/02/12 10:37:08;;;;;;;16.50;10.93;;;;;;;8.89;100.00;103831.72;5017380;28;20210;-67
2023/02/12 10:39:40;;;;;;;17.27;10.97;;;;;;;8.95;100.00;103825.41;5015639;28;20198;-67
2023/02/12 10:42:18;;;;;;;17.97;10.90;;;;;;;8.93;100.00;103826.03;5014541;28;20199;-67
2023/02/12 10:44:44;;;;;;;16.80;10.87;;;;;;;8.89;100.00;103818.94;5011427;28;20200;-67
2023/02/12 10:47:21;;;;;;;14.53;9.47;;;;;;;8.91;100.00;103823.38;5013313;28;20214;-67
2023/02/12 10:49:56;;;;;;;13.80;9.03;;;;;;;8.99;100.00;103818.84;5011136;28;20205;-67
2023/02/12 10:52:44;;;;;;;14.03;9.73;;;;;;;9.02;100.00;103808.81;5010317;28;20263;-68
2023/02/12 10:55:27;;;;;;;13.97;9.20;;;;;;;9.11;100.00;103812.03;5006062;28;20209;-67
2023/02/12 10:57:53;;;;;;;12.80;8.10;;;;;;;9.09;100.00;103817.06;5007454;28;20203;-68
2023/02/12 11:00:28;;;;;;;12.33;8.00;;;;;;;9.12;100.00;103817.28;5010479;28;20195;-68
2023/02/12 11:03:12;;;;;;;13.43;9.13;;;;;;;9.15;100.00;103814.94;5010109;28;20269;-68
2023/02/12 11:05:42;;;;;;;12.07;8.20;;;;;;;9.13;100.00;103811.38;5011238;28;20222;-67
2023/02/12 11:08:25;;;;;;;13.17;8.57;;;;;;;9.18;100.00;103806.63;5005457;28;20195;-68
2023/02/12 11:10:51;;;;;;;14.57;8.47;;;;;;;9.17;100.00;103810.81;4992617;28;20194;-67
2023/02/12 11:13:27;;;;;;;10.47;7.57;;;;;;;9.25;100.00;103808.81;5006372;28;20225;-67
2023/02/12 11:15:53;;;;;;;10.57;7.20;;;;;;;9.28;100.00;103806.50;5008950;28;20206;-67
2023/02/12 11:18:28;;;;;;;10.07;7.17;;;;;;;9.45;100.00;103798.38;5001911;28;20230;-67
2023/02/12 11:20:57;;;;;;;10.03;7.30;;;;;;;9.39;100.00;103801.38;4986669;28;20195;-66
2023/02/12 11:23:27;;;;;;;11.27;7.83;;;;;;;9.34;100.00;103802.72;5007222;28;20290;-66
2023/02/12 11:25:58;;;;;;;10.77;7.77;;;;;;;9.36;100.00;103798.59;5017441;28;20223;-66
2023/02/12 11:28:24;;;;;;;10.80;7.30;;;;;;;9.34;100.00;103802.72;5017991;28;20201;-68
2023/02/12 11:30:54;;;;;;;10.23;7.10;;;;;;;9.36;100.00;103795.16;5016773;28;20301;-67